Terminal Aerodrome Forecast
Issued by NWS

Home | Current Version | Previous Version | Text Only | Print | Product List | Glossary On
Versions: 1 2 3 4 5 6 7 8 9 10 11 12 13 14 15 16 17 18 19 20 21 22 23 24
000
FTUS45 KGGW 290500
TAFGDV
TAF
KGDV 290520Z 2906/3006 30008KT P6SM FEW250
     FM290900 35009KT P6SM VCTS BKN050CB
     FM291200 35010KT P6SM VCSH BKN040
     FM291800 01007KT P6SM BKN050
     FM300100 VRB06KT P6SM SKC
      AMD LTD TO CLD VIS AND WIND=

USA.gov is the U.S. government's official web portal to all federal, state and local government web resources and services.